This is the latest recevied weather packets stored in our database for station/object W4KBW. If no packets are shown the sender has not sent any weather packets the latest 10 day(s).
| Time | Temp. | Humidity | Pressure | Rain* | Wind** | Luminosity | Snow |
|---|---|---|---|---|---|---|---|
| 1777154369 | 24.44° C | 100% | 1008.7 hPa | 0.25 mm | - | - | - |
| 1777153439 | 26.11° C | 100% | 1008.5 hPa | 0.25 mm | - | - | - |
| 1777152539 | 26.67° C | 100% | 1008.6 hPa | 0.25 mm | - | - | - |
| 1777151639 | 28.89° C | 100% | 1008 hPa | 0 mm | - | - | - |
| 1777150709 | 30.56° C | 100% | 1007.9 hPa | 0 mm | - | - | - |
| 1777150029 | 31.67° C | 100% | 1007.8 hPa | 0 mm | - | - | - |
| 1777149779 | 31.67° C | 100% | 1007.8 hPa | 0 mm | - | - | - |
| 1777148881 | 32.22° C | 100% | 1008 hPa | 0 mm | - | - | - |
| 1777148849 | 32.22° C | 100% | 1008 hPa | 0 mm | - | - | - |
| 1777147949 | 31.67° C | 100% | 1008 hPa | 0 mm | - | - | - |
| 1777147049 | 30.56° C | 100% | 1008.5 hPa | 0 mm | - | - | - |
| 1777146180 | 31.11° C | 100% | 1008.7 hPa | 0 mm | - | - | - |
| 1777146149 | 31.11° C | 100% | 1008.7 hPa | 0 mm | - | - | - |
| 1777145219 | 31.11° C | 100% | 1008.8 hPa | 0 mm | - | - | - |
| 1777144319 | 32.22° C | 100% | 1009.1 hPa | 0 mm | - | - | - |
| 1777143419 | 32.22° C | 100% | 1009.5 hPa | 0 mm | - | - | - |
| 1777142519 | 31.11° C | 100% | 1009.6 hPa | 0 mm | - | - | - |
| 1777141589 | 31.11° C | 100% | 1009.8 hPa | 0 mm | - | - | - |
| 1777140689 | 32.22° C | 100% | 1009.9 hPa | 0 mm | - | - | - |
| 1777139759 | 32.22° C | 100% | 1010 hPa | 0 mm | - | - | - |
| 1777138829 | 32.22° C | 100% | 1010.1 hPa | 0 mm | - | - | - |
| 1777137929 | 31.11° C | 100% | 1010.2 hPa | 0 mm | - | - | - |
| 1777137042 | 31.67° C | 100% | 1010.2 hPa | 0 mm | - | - | - |
| 1777136999 | 31.67° C | 100% | 1010.2 hPa | 0 mm | - | - | - |
| 1777136069 | 31.11° C | 100% | 1010.2 hPa | 0 mm | - | - | - |
* Rain latest hour (hover to see other rain measurements)
** Current wind speed in m/s (hover to see current wind gust speed)